Preview of NWS' New Version of Forecast
This preview is not operational and should not be used for support decisions.
Latest weather observations around

Ak-Chin Regional Airport (KA39)

Using International System of Units (Switch to English Units)
Date/ Time (MST) Wind (kph) Vis. (km) Weather Sky Cond. Temp (°C) Rel. Humidity Wind Chill (°C) Heat Index (°C) Pressure Precip. (cm)
Air Dwpt 6 hour Altimeter (hPa) Sea level (hPa) 1 hr 3 hr 6 hr
Max Min
Jul 17 11:35 SSE 7 16.09 Clear CLR 35 17     34%   36 1015.58        
Jul 17 11:15 Calm 16.09 Clear   35 18     37%   36 1015.92        
Jul 17 10:55 S 11 16.09 Clear CLR 35 18     37%   36 1016.26        
Jul 17 10:35 S 13 16.09 Clear   35 18     37%   36 1016.26        
Jul 17 10:15 S 9 16.09 Clear   34 18     39%   35 1016.26        
Jul 17 09:55 SSE 17 16.09 Clear   34 18     39%   35 1016.26        
Jul 17 09:35 S 17 16.09 Clear   34 19     41%   36 1015.92        
Jul 17 09:15 S 22 16.09 Clear   33 19     44%   35 1015.92        
Jul 17 08:55 S 30 16.09 Clear CLR 32 19     46%   33 1015.92        
Jul 17 08:35 S 28 11.27 Haze CLR 32 20     49%   34 1015.58        
Jul 17 08:15 S 26 11.27 Clear CLR 32 19     46%   33 1015.24        
Jul 17 07:55 S 24 6.44 Haze CLR 32 17     41%   32 1014.9        
Jul 17 07:35 S 17 16.09 Clear   33 16     36%   33 1014.9        
Jul 17 07:15 S 20 11.27 Haze CLR 32 15     36%   32 1014.56        
Jul 17 06:55 S 11 16.09 Clear   31 15     38%   31 1014.56        
Jul 17 06:35 SSW 13 16.09 Clear   30 15     40%   30 1013.88        
Jul 17 06:15 S 15 16.09 Clear   30 14     38%   29 1013.88        
Jul 17 05:55 SE 13 16.09 Clear CLR 30 13     35%   29 1013.55        
Jul 17 05:35 SSE 7 16.09 Clear   29 13     37%   28 1013.21        
Jul 17 05:15 SE 7 16.09 Clear   29 13     37%   28 1012.87        
Jul 17 04:55 SE 13 16.09 Clear   29 12     35%   28 1012.87        
Jul 17 04:35 SE 13 16.09 Clear   29 12     35%   28 1012.19        
Jul 17 04:15 ESE 13 16.09 Clear   29 12     35%   28 1011.85        
Jul 17 03:55 SE 15 16.09 Clear   29 11     33%   28 1011.51        
Jul 17 03:35 ESE 11 16.09 Clear   29 11     33%   28 1011.18        
Jul 17 03:15 SE 13 16.09 Clear   29 12     35%   28 1011.18        
Jul 17 02:55 ESE 13 16.09 Clear CLR 29 12     35%   28 1010.84        
Jul 17 02:35 E 9 16.09 Clear CLR 30 12     33%   29 1010.16        
Jul 17 02:15 SSE 9 16.09 Clear CLR 29 12     35%   28 1009.82        
Jul 17 01:55 SSE 9 16.09 Clear   30 12     33%   29 1009.82        
Jul 17 01:35 SSE 9 16.09 Clear   31 12     31%   30 1010.16        
Jul 17 01:15 S 11 16.09 Clear   31 13     33%   30 1010.16        
Jul 17 00:55 S 6 16.09 Clear   32 13     31%   31 1010.16        
Jul 17 00:35 Calm 16.09 Clear   32 13     31%   31 1010.16        
Jul 17 00:15 S 6 16.09 Clear   33 13     30%   32 1010.16        
Jul 16 23:55 SW 9 16.09 Clear   33 14     32%   32 1010.16        
Jul 16 23:35 SW 11 16.09 Clear   34 13     28%   33 1009.82        
Jul 16 23:15 SW 17 16.09 Clear   34 13     28%   33 1009.82        
Jul 16 22:55 SSW 9 16.09 Clear   33 13     30%   32 1009.82        
Jul 16 22:35 Calm 16.09 Clear CLR 33 13     30%   32 1009.82        
Jul 16 22:15 SW 7 16.09 Clear   33 13     30%   32 1009.82        
Notice The following observation data may not be complete
Jul 16 21:55 SW 6 16.09 Clear CLR   14      %     1009.82        
Jul 16 21:35 WSW 7 16.09 Clear   34 14     30%   33 1009.48        
Jul 16 21:15 W 7 16.09 Clear   35 13     27%   34 1009.48        
Jul 16 20:55 W 9 16.09 Clear   35 13     27%   34 1009.14        
Jul 16 20:35 W 9 16.09 Clear   36 13     25%   35 1008.81        
Jul 16 20:15 W 9 16.09 Clear   36 13     25%   35 1008.81        
Jul 16 19:55 W 11 16.09 Partly Cloudy SCT100 SCT120 37 14     25%   37 1008.47        
Jul 16 19:35 W 15 16.09 Clear   37 13     24%   36 1008.13        
Jul 16 19:15 W 13 16.09 Clear   38 13     23%   37 1008.13        
Jul 16 18:55 W 15 16.09 Clear CLR 40 12     19%   39 1007.79        
Jul 16 18:35 W 15 16.09 Clear CLR 41 12     18%   40 1007.79        
Jul 16 18:15 W 15 16.09 Clear   41 12     18%   40 1007.45        
Jul 16 15:55   16.09 Clear CLR 44 3     8%   40 1008.13        
Jul 16 15:35 W 17 16.09 Clear CLR 45 3     8%   41 1008.47        
Jul 16 15:15 WSW 9 16.09 Clear CLR 44 2     8%   40 1008.47        
Jul 16 14:55 W 22 16.09 Clear CLR 44 3     8%   40 1008.81        
Jul 16 14:35 W 17 16.09 Clear   44 3     8%   40 1009.14        
Jul 16 14:15 W 13 16.09 Clear   44 2     8%   40 1009.14        
Jul 16 13:55   16.09 Clear CLR 44 3     8%   40 1009.48        
Jul 16 13:35 W 7 16.09 Clear   43 2     8%   39 1009.82        
Jul 16 13:15 W 6 16.09 Clear   43 3     9%   39 1010.16        
Jul 16 12:55 W 11 16.09 Clear CLR 43 3     9%   39 1010.16        
Jul 16 12:35 W 13 16.09 Clear CLR 42 2     9%   38 1010.5        
Jul 16 12:15 W 7 16.09 Clear   42 2     9%   38 1010.84        
Jul 16 11:55 W 9 16.09 Clear   42 2     9%   38 1010.84        
Jul 16 11:35 W 6 16.09 Clear   41 0     8%   37 1011.18        
Jul 16 11:15 W 9 16.09 Clear   41 0     8%   37 1011.51        
Jul 16 10:55 WNW 7 16.09 Clear   40 1     9%   36 1011.51        
Jul 16 10:35 W 7 16.09 Clear   40 2     10%   37 1011.51        
Jul 16 10:15 Calm 16.09 Clear   39 2     10%   36 1011.85        
Jul 16 09:55 W 11 16.09 Clear   39 2     10%   36 1011.85        
Jul 16 09:35 WSW 9 16.09 Clear CLR 38 3     11%   35 1011.51        
Jul 16 09:15 WSW 9 16.09 Clear CLR 38 4     12%   35 1011.51        
Jul 16 08:55 S 11 16.09 Clear   37        %     1011.51        
Jul 16 08:35 S 11 16.09 Clear CLR 37 11     21%   36 1011.18        
Jul 16 08:15 SSE 15 16.09 Clear CLR 36 12     24%   35 1011.18        
Jul 16 07:55 SSE 15 16.09 Clear CLR 32 13     31%   31 1011.18        
Jul 16 07:35 SE 13 16.09 Clear   32 13     31%   31 1011.18        
Jul 16 07:15 SE 11 16.09 Clear   31 13     33%   30 1010.84        
Jul 16 06:55 SSE 9 16.09 Clear CLR 30 13     35%   29 1010.84        
Jul 16 06:35 SE 11 16.09 Clear   30 13     35%   29 1010.5        
Jul 16 06:15 SE 15 16.09 Clear   29 12     35%   28 1010.16        
Jul 16 05:55 SE 11 16.09 Clear   29 12     35%   28 1010.16        
Jul 16 05:35 ESE 11 16.09 Clear   28 12     37%   27 1009.82        
Jul 16 05:15 SE 11 16.09 Clear   28 11     35%   27 1009.82        
Jul 16 04:55 ESE 13 16.09 Clear   28 10     32%   27 1009.48        
Jul 16 04:35 ESE 13 16.09 Clear   28 9     30%   27 1009.14        
Jul 16 04:15 SE 11 16.09 Clear   29 7     25%   28 1009.14        
Jul 16 03:55 SE 9 16.09 Clear CLR 29 7     25%   28 1009.14        
Jul 16 03:35 Calm 16.09 Clear   32 6     20%   30 1008.81        
Jul 16 03:15 N 6 16.09 Clear   32 8     23%   30 1008.81        
Jul 16 02:55 Calm 16.09 Clear   32 9     24%   30 1008.81        
Jul 16 02:35 N 7 16.09 Clear   32 9     24%   30 1008.81        
Jul 16 02:15 Calm 16.09 Clear CLR 32 10     26%   30 1008.81        
Jul 16 01:55 Calm 16.09 Clear   30 11     31%   29 1009.14        
Notice The following observation data may not be complete
Jul 16 01:35 ESE 13 16.09 Clear     11      %     1009.14        
Jul 16 01:15 SE 6 16.09 Clear   31 12     31%   30 1009.14        
Jul 16 00:55 S 6 16.09 Clear   33 11     26%   31 1009.48        
Jul 16 00:35 SSW 6 16.09 Clear   33 12     28%   32 1009.48        
Jul 16 00:15 SE 9 16.09 Clear   33 12     28%   32 1009.48        
Notice The following observation data may not be complete
Jul 15 23:55 ESE 11 16.09 Clear     11      %     1009.48        
Jul 15 23:35 S 9 16.09 Clear CLR 33 12     28%   32 1009.14        
Jul 15 23:15 SSE 13 16.09 Clear   33 12     28%   32 1009.14        
Jul 15 22:55 SE 6 16.09 Clear   33 12     28%   32 1009.14        
Jul 15 22:35 Calm 16.09 Clear   34 13     28%   33 1009.14        
Jul 15 22:15 Calm 16.09 Clear   34 14     30%   33 1009.14        
Jul 15 21:55 SW 6 16.09 Clear   35 14     28%   34 1009.14        
Jul 15 21:35 W 7 16.09 Mostly Cloudy BKN110 36 13     25%   35 1009.14        
Jul 15 21:15 W 7 16.09 Clear   36 14     27%   35 1009.14        
Jul 15 20:55 W 7 16.09 Clear   36 13     25%   35 1008.81        
Jul 15 20:35 W 7 16.09 Clear   37 13     24%   36 1008.47        
Jul 15 20:15 W 7 11.27 Clear   38 14     24%   38 1008.47        
Jul 15 19:55 W 9 16.09 Clear   39 13     21%   38 1008.13        
Jul 15 19:35 W 9 16.09 Clear   39 14     23%   39 1008.13        
Jul 15 19:15 WSW 7 16.09 Clear   40 14     22%   40 1008.13        
Jul 15 18:55 W 9 16.09 Clear   41 12     18%   40 1007.79        
Jul 15 18:35 W 15 16.09 Clear   42 12     17%   41 1007.79        
Jul 15 18:15 W 17 16.09 Clear   43 12     16%   42 1007.79        
Jul 15 17:55 W 15 16.09 Clear   43 12     16%   42 1007.79        
Jul 15 17:35 W 17 16.09 Clear   43 12     16%   42 1007.79        
Jul 15 17:15 W 20 16.09 Clear CLR 43 12     16%   42 1007.79        
Jul 15 16:55 W 19 16.09 Clear   43 12     16%   42 1008.13        
Jul 15 16:35 W 19 16.09 Clear CLR 43 11     15%   42 1008.13        
Jul 15 16:15 W 17 16.09 Clear   43 12     16%   42 1008.47        
Jul 15 15:55 W 13 16.09 Clear   43 12     16%   42 1008.81        
Jul 15 15:35 WSW 15 16.09 Clear   43 12     16%   42 1008.81        
Jul 15 15:15 W 19 16.09 Clear   43 12     16%   42 1009.14        
Jul 15 14:55 WNW 11 16.09 Clear   43 12     16%   42 1009.48        
Jul 15 14:35 WNW 15 16.09 Clear   43 13     17%   43 1009.82        
Jul 15 14:15 W 15 16.09 Clear   42 13     18%   42 1010.16        
Jul 15 13:55 W 11 16.09 Clear   42 13     18%   42 1010.5        
Jul 15 13:35 W 15 16.09 Clear   42 13     18%   42 1010.84        
Jul 15 13:15 W 9 16.09 Clear   41 14     21%   41 1011.51        
Jul 15 12:55 NW 9 16.09 Clear CLR 41 14     21%   41 1011.51        
Jul 15 12:35 WSW 9 16.09 Clear   40 15     23%   40 1011.85        
Jul 15 12:15 W 19 16.09 Clear   40 15     23%   40 1012.19        
Jul 15 11:55 W 11 16.09 Clear   39 15     24%   39 1012.53        
Jul 15 11:35 WSW 13 16.09 Clear   39 14     23%   39 1012.87        
Jul 15 11:15 WSW 11 16.09 Clear CLR 39 14     23%   39 1012.87        
Jul 15 10:55 W 13 16.09 Clear CLR 38 15     26%   38 1013.21        
Jul 15 10:35 WSW 11 16.09 Clear   38 15     26%   38 1013.21        
Jul 15 10:15 WSW 11 16.09 Clear   37 15     27%   37 1013.21        
Jul 15 09:55 WSW 7 16.09 Clear   37 15     27%   37 1013.21        
Jul 15 09:35 Calm 16.09 Clear   36 15     29%   36 1013.55        
Jul 15 09:15 Calm 16.09 Clear   36 15     29%   36 1013.55        
Jul 15 08:55 Calm 16.09 Clear   35 15     30%   35 1013.55        
Jul 15 08:35 S 11 16.09 Clear CLR 34 16     34%   34 1013.88        
Jul 15 08:15 S 11 16.09 Clear CLR 34 16     34%   34 1013.88        
Jul 15 07:55 S 13 16.09 Clear   34 15     32%   34 1013.88        
Jul 15 07:35 SE 11 16.09 Clear   33 15     34%   33 1013.88        
Jul 15 07:15 SSE 11 16.09 Clear   33 15     34%   33 1013.55        
Jul 15 06:55 ESE 7 16.09 Clear   32 15     36%   32 1013.55        
Jul 15 06:35 ESE 9 16.09 Clear CLR 31 15     38%   31 1013.55        
Jul 15 06:15 E 11 16.09 Clear   30 15     40%   30 1013.55        
Jul 15 05:55 E 13 16.09 Clear   29 15     43%   29 1013.21        
Jul 15 05:35 ESE 13 16.09 Clear   28 15     45%   28 1013.21        
Jul 15 05:15 SE 9 16.09 Clear   29 15     43%   29 1012.87        
Jul 15 04:55 SE 6 16.09 Clear CLR 29 15     43%   29 1012.87        
Jul 15 04:35 ESE 17 16.09 Clear   29 15     43%   29 1012.87        
Jul 15 04:15 SE 13 16.09 Clear   29 15     43%   29 1012.87        
Jul 15 03:55 E 13 16.09 Clear   30 15     40%   30 1012.53        
Jul 15 03:35 ESE 15 16.09 Clear   30 15     40%   30 1012.87        
Jul 15 03:15 SE 15 16.09 Clear CLR 30 15     40%   30 1012.87        
Jul 15 02:55 ESE 13 16.09 Clear   30 15     40%   30 1012.87        
Jul 15 02:35 ESE 13 16.09 Clear   30 15     40%   30 1012.87        
Jul 15 02:15 SE 15 16.09 Clear   31 15     38%   31 1012.87        
Jul 15 01:55 ESE 15 16.09 Clear   31 15     38%   31 1013.21        
Jul 15 01:35 ESE 17 16.09 Clear   31 15     38%   31 1013.21        
Jul 15 01:15 ESE 13 16.09 Clear   30 15     40%   30 1013.21        
Jul 15 00:55 SE 11 16.09 Clear   31 15     38%   31 1013.55        
Jul 15 00:35 SE 11 16.09 Clear   31 15     38%   31 1013.55        
Jul 15 00:15 SSE 11 16.09 Clear   31 16     40%   31 1013.55        
Jul 14 23:55 SSE 13 16.09 Clear   31 16     40%   31 1013.55        
Jul 14 23:35 SSE 15 16.09 Clear   32 16     38%   32 1013.55        
Jul 14 23:15 S 19 16.09 Clear   32 16     38%   32 1013.55        
Jul 14 22:55 S 20 16.09 Clear   32 16     38%   32 1013.55        
Jul 14 22:35 SSE 22 16.09 Clear   33 16     36%   33 1013.55        
Jul 14 22:15 SSE 28 16.09 Clear CLR 33 16     36%   33 1013.55        
Jul 14 21:55   16.09 Clear CLR 34 16     34%   34 1013.55        
Jul 14 21:35 W 7 16.09 Clear CLR 37 14     25%   37 1012.87        
Jul 14 21:15 W 9 16.09 Clear CLR 37 14     25%   37 1012.53        
Jul 14 20:55 NNW 15 16.09 Clear   38 14     24%   38 1012.19        
Jul 14 20:35 NNW 13 16.09 Clear   35 16     32%   35 1011.85        
Jul 14 20:15 W 11 16.09 Clear CLR 36 16     31%   36 1011.51        
Jul 14 19:55 W 11 16.09 Clear   37 16     29%   37 1011.18        
Jul 14 19:35 W 13 16.09 Clear CLR 37 16     29%   37 1011.18        
Jul 14 19:15 W 17 16.09 Clear   39 15     24%   39 1010.84        
Jul 14 18:55 W 17 16.09 Clear CLR 39 16     26%   40 1010.84        
Jul 14 18:35 W 19 16.09 Clear   40 16     25%   41 1010.84        
Jul 14 18:15 W 20 16.09 Clear   40 16     25%   41 1010.84        
Jul 14 17:55 W 22 16.09 Clear   41 16     23%   42 1010.84        
Jul 14 17:35 W 24 16.09 Clear CLR 41 16     23%   42 1010.84        
Jul 14 17:15 W 22 16.09 Clear   41 15     22%   42 1010.84        
Jul 14 16:55 NW 19 16.09 Clear   42 12     17%   41 1011.18        
Jul 14 16:35 W 19 16.09 Clear   42 13     18%   42 1011.51        
Jul 14 16:15 W 22 16.09 Clear CLR 42 13     18%   42 1011.85        
Jul 14 15:55 W 22 16.09 Clear   42 12     17%   41 1011.85        
Jul 14 15:35 W 20 16.09 Clear   42 13     18%   42 1012.19        
Jul 14 15:15 W 20 16.09 Clear CLR 42 14     19%   42 1012.19        
Jul 14 14:55 W 24 16.09 Clear   41 14     21%   41 1012.53        
Jul 14 14:35 W 24 16.09 Clear   41 14     21%   41 1012.53        
Jul 14 14:15 W 26 16.09 Clear   41 15     22%   42 1012.87        
Jul 14 13:55 W 22 16.09 Clear CLR 41 15     22%   42 1013.21        
Jul 14 13:35 W 24 16.09 Clear   41 15     22%   42 1013.55        
Jul 14 13:15 WSW 19 16.09 Clear   41 14     21%   41 1013.55        
Jul 14 12:55 W 13 16.09 Clear   40 15     23%   40 1013.88        
Jul 14 12:35 W 17 16.09 Clear   39 16     26%   40 1014.22        
Jul 14 12:15 W 11 16.09 Clear   39 16     26%   40 1014.56        
Jul 14 11:55 W 19 16.09 Clear CLR 39 16     26%   40 1014.9        
Jul 14 11:35 WSW 15 16.09 Clear   38 16     27%   39 1014.9        
Jul 14 11:15 W 9 16.09 Clear CLR 38 16     27%   39 1015.24        
Jul 14 10:55 W 13 16.09 Clear   38 16     27%   39 1015.24        
Jul 14 10:35 W 11 16.09 Clear   37 15     27%   37 1015.58        
Jul 14 10:15 WSW 11 16.09 Clear CLR 37 15     27%   37 1015.58        
Jul 14 09:55 WSW 11 16.09 Clear   37 15     27%   37 1015.92        
Jul 14 09:35 W 11 16.09 Clear   36 15     29%   36 1015.92        
Jul 14 09:15 W 11 16.09 Clear   35 15     30%   35 1015.92        
Jul 14 08:55 Calm 16.09 Clear CLR 35 15     30%   35 1015.92        
Jul 14 08:35 S 6 16.09 Clear   34 15     32%   34 1015.92        
Jul 14 08:15 SE 9 16.09 Clear   34 15     32%   34 1015.92        
Jul 14 07:55 SSE 13 16.09 Clear   34 15     32%   34 1015.92        
Jul 14 07:35 SSE 11 16.09 Clear   33 15     34%   33 1015.58        
Jul 14 07:15 SE 11 11.27 Clear   33 15     34%   33 1015.58        
Jul 14 06:55 ESE 13 16.09 Clear   32 14     34%   31 1015.24        
Jul 14 06:35 ESE 11 16.09 Clear   31 13     33%   30 1014.9        
Jul 14 06:15 SSE 7 16.09 Clear   29 13     37%   28 1014.56        
Jul 14 05:55 E 6 16.09 Clear   29 13     37%   28 1014.56        
Jul 14 05:35 E 6 16.09 Clear   28 13     40%   28 1014.22        
Jul 14 05:15 Calm 16.09 Clear   29 13     37%   28 1014.22        
Jul 14 04:55 Calm 16.09 Clear CLR 30 14     38%   29 1013.88        
Jul 14 04:35 Calm 16.09 Clear   30 14     38%   29 1013.88        
Jul 14 04:15 Calm 16.09 Clear   30 14     38%   29 1013.55        
Jul 14 03:55 SSE 6 16.09 Clear CLR 30 15     40%   30 1013.55        
Jul 14 03:35 S 7 16.09 Clear   30 15     40%   30 1013.21        
Jul 14 03:15 S 7 16.09 Clear   30 15     40%   30 1013.21        
Jul 14 02:55 S 9 16.09 Clear   31 15     38%   31 1013.55        
Jul 14 02:35 SE 6 16.09 Clear   30 15     40%   30 1013.55        
Jul 14 02:15 E 7 16.09 Clear CLR 30 15     40%   30 1013.88        
Jul 14 01:55 SSE 6 16.09 Clear   31 16     40%   31 1013.55        
Jul 14 01:35 S 9 16.09 Clear   31 16     40%   31 1013.55        
Jul 14 01:15 SE 7 16.09 Clear   33 15     34%   33 1013.55        
Jul 14 00:55 SE 7 16.09 Clear CLR 33 15     34%   33 1013.88        
Jul 14 00:35 ESE 9 16.09 Clear   34 15     32%   34 1014.22        
Jul 14 00:15 SE 11 16.09 Clear   34 15     32%   34 1014.22        
Jul 13 23:55 SE 13 16.09 Clear   35 15     30%   35 1013.88        
Jul 13 23:35 E 9 16.09 Clear   35 15     30%   35 1014.22        
Jul 13 23:15 E 24 16.09 Clear   35 15     30%   35 1014.22        
Jul 13 22:55 S 7 16.09 Clear   34 16     34%   34 1013.55        
Jul 13 22:35 S 7 16.09 Clear   34 16     34%   34 1013.21        
Jul 13 22:15 S 6 16.09 Clear CLR 33 16     36%   33 1012.87        
Jul 13 21:55 SSW 7 16.09 Clear CLR 34 16     34%   34 1012.87        
Jul 13 21:35 SSE 11 16.09 Clear   34 16     34%   34 1012.53        
Jul 13 21:15 SSE 17 16.09 Clear   35 15     30%   35 1012.53        
Jul 13 20:55 SSE 17 16.09 Clear   36 14     27%   35 1012.19        
Jul 13 20:35 WSW 6 16.09 Clear   37 12     22%   36 1011.51        
Jul 13 20:15 Calm 11.27 Clear   36 14     27%   35 1011.18        
Jul 13 19:55 Calm 11.27 Clear   37 14     25%   37 1010.84        
Jul 13 19:35 W 9 16.09 Clear   38 14     24%   38 1010.5        
Jul 13 19:15 WNW 9 16.09 Clear   39 14     23%   39 1010.16        
Jul 13 18:55 W 11 16.09 Clear CLR 39 13     21%   38 1010.16        
Jul 13 18:35 WNW 19 16.09 Clear CLR 40 11     18%   39 1009.82        
Jul 13 18:15 WNW 20 16.09 Clear   40 12     19%   39 1009.82        
Jul 13 17:55 WNW 24 16.09 Clear CLR 41 11     17%   40 1009.82        
Jul 13 17:35 WNW 22 16.09 Clear CLR 41 11     17%   40 1009.82        
Jul 13 17:15 WNW 24 16.09 Clear   41 12     18%   40 1009.82        
Jul 13 16:55 W 22 16.09 Clear   41 12     18%   40 1009.82        
Jul 13 16:35 W 26 16.09 Clear   41 11     17%   40 1009.82        
Jul 13 16:15 WNW 24 16.09 Clear   41 12     18%   40 1009.82        
Jul 13 15:55 W 24 16.09 Clear   41 11     17%   40 1010.16        
Jul 13 15:35 W 24 16.09 Clear   40 13     20%   39 1010.5        
Jul 13 15:15 W 28 16.09 Clear   41 13     19%   41 1010.84        
Jul 13 14:55 W 26 16.09 Clear   41 12     18%   40 1010.84        
Jul 13 14:35 W 24 16.09 Clear   41 12     18%   40 1010.84        
Jul 13 14:15 W 17 16.09 Clear   41 12     18%   40 1011.51        
Jul 13 13:55 W 15 16.09 Clear   41 11     17%   40 1011.51        
Jul 13 13:35 W 17 16.09 Clear   41 11     17%   40 1011.85        
Jul 13 13:15 W 13 16.09 Clear CLR 40 11     18%   39 1012.19        
Jul 13 12:55 W 19 16.09 Clear   40 11     18%   39 1012.19        
Jul 13 12:35 W 17 16.09 Clear   40 10     17%   38 1012.53        
Jul 13 12:15 W 11 16.09 Clear   40 10     17%   38 1012.87        
Jul 13 11:55 SSW 13 16.09 Clear   40 11     18%   39 1012.87        
Jul 13 11:35 SW 15 16.09 Clear   39 11     19%   38 1013.21        
Jul 13 11:15 WSW 15 16.09 Clear   39 11     19%   38 1013.21        
Jul 13 10:55 SW 13 16.09 Clear   38 11     20%   37 1013.55        
Jul 13 10:35 WSW 17 16.09 Clear   38 11     20%   37 1013.55        
Jul 13 10:15 WSW 15 16.09 Clear   37 11     21%   36 1013.55        
Jul 13 09:55 WSW 15 16.09 Clear   37 10     20%   35 1013.55        
Jul 13 09:35 WSW 13 16.09 Clear   37 10     20%   35 1013.55        
Jul 13 09:15 W 11 16.09 Clear   36 10     21%   34 1013.55        
Jul 13 08:55 WSW 11 16.09 Clear CLR 37 9     18%   35 1013.55        
Jul 13 08:35 W 6 16.09 Clear   36 9     19%   34 1013.55        
Jul 13 08:15 Calm 16.09 Clear   35 9     20%   33 1013.55        
Jul 13 07:55 SSW 9 16.09 Clear   35 12     25%   34 1013.21        
Jul 13 07:35 S 11 16.09 Clear   34 11     25%   32 1012.87        
Jul 13 07:15 S 11 16.09 Clear CLR 34 10     23%   32 1012.53        
Jul 13 06:55 SE 9 16.09 Clear CLR 33 10     24%   31 1012.53        
Jul 13 06:35 ESE 13 16.09 Clear   31 10     27%   30 1012.19        
Jul 13 06:15 SE 11 16.09 Clear   31 10     27%   30 1011.85        
Jul 13 05:55 SE 15 11.27 Haze CLR 30 11     31%   29 1011.51        
Jul 13 05:35 SSE 13 16.09 Clear   28 11     35%   27 1011.18        
Jul 13 05:15 SE 7 16.09 Clear   30 10     29%   29 1011.18        
Jul 13 04:55 SSE 9 16.09 Clear   31 9     26%   29 1010.84        
Jul 13 04:35 SE 13 16.09 Clear   30 9     27%   29 1010.16        
Jul 13 03:55 E 9 16.09 Clear   31 10     27%   30 1010.16        
Jul 13 03:35 ESE 11 16.09 Clear   31 10     27%   30 1009.82        
Jul 13 03:15 Calm 16.09 Clear CLR 32 10     26%   30 1010.16        
Jul 13 02:55 SE 9 16.09 Clear   32 11     28%   31 1010.16        
Jul 13 02:35 SE 6 16.09 Clear CLR 34 11     25%   32 1010.16        
Jul 13 02:15 NNE 6 16.09 Clear   35 11     23%   33 1010.16        
Jul 13 01:55 NE 13 16.09 Clear CLR 33 11     26%   31 1010.16        
Jul 13 01:35 Calm 16.09 Clear   34 13     28%   33 1010.16        
Jul 13 01:15 W 11 16.09 Clear   35 12     25%   34 1010.16        
Notice The following observation data may not be complete
Jul 13 00:55   16.09 Clear            %              
Jul 13 00:35 NNE 13 16.09 Clear   36 11     22%   35 1010.16        
Jul 13 00:15 NW 9 16.09 Clear   35 12     25%   34 1010.16        
Jul 12 23:55 NE 11 16.09 Clear   36 11     22%   35 1009.82        
Jul 12 23:35 NE 19 16.09 Clear   36 11     22%   35 1009.48        
Jul 12 23:15 ENE 11 16.09 Clear   37 11     21%   36 1009.48        
Jul 12 22:55 ENE 15 16.09 Clear   37 11     21%   36 1009.48        
Jul 12 22:35 ENE 17 16.09 Clear   37 10     20%   35 1009.48        
Jul 12 22:15   16.09 Partly Cloudy SCT070 SCT090 SCT120 38 10     19%   36 1009.48        
Jul 12 21:55 NNE 24 16.09 Clear   38 10     19%   36 1009.14        
Jul 12 21:35 NNE 22 16.09 Clear   38 10     19%   36 1009.14        
Jul 12 21:15 E 11 16.09 Clear   38 10     19%   36 1008.81        
Jul 12 20:55 NE 6 16.09 Partly Cloudy SCT047 SCT060 SCT100 38 11     20%   37 1008.81        
Jul 12 20:35 N 6 16.09 Clear   37 12     22%   36 1008.47        
Jul 12 20:15 SW 13 16.09 Light Rain SCT060 SCT075 SCT120 37 11     21%   36 1008.13        
Jul 12 19:55 SW 9 11.27 Partly Cloudy SCT120 39 9     16%   37 1007.79        
Jul 12 19:35 WSW 19 11.27 Clear   38 11     20%   37 1007.79        
Jul 12 19:15 Calm 16.09 Clear   38        %     1007.79        
Jul 12 18:55 WSW 7 16.09 Clear CLR 39        %     1007.79        
Jul 12 18:35 WSW 9 11.27 Clear   39        %     1007.45        
Jul 12 18:15 WSW 7 16.09 Clear   40 11     18%   39 1007.45        
Jul 12 17:55 WSW 7 16.09 Clear   41 9     15%   39 1007.45        
Jul 12 17:35 SW 9 16.09 Clear   41 8     14%   39 1007.45        
Jul 12 17:15 SW 7 16.09 Clear   41 8     14%   39 1007.45        
Jul 12 16:55 WSW 11 16.09 Clear CLR 42 9     14%   40 1007.79        
Jul 12 16:35 W 7 16.09 Clear   41 8     14%   39 1007.79        
Jul 12 16:15 WSW 9 16.09 Clear   41 9     15%   39 1008.13        
Jul 12 15:55 W 6 16.09 Clear   41 8     14%   39 1008.13        
Jul 12 15:35 NNW 7 16.09 Clear   42 8     13%   40 1008.47        
Jul 12 15:15 NNW 9 16.09 Clear   42 8     13%   40 1008.81        
Jul 12 14:55 NNW 15 16.09 Clear   42 8     13%   40 1008.81        
Jul 12 14:35 WNW 20 16.09 Clear   43 8     12%   41 1009.14        
Jul 12 14:15 WNW 19 16.09 Clear   42 8     13%   40 1009.48        
Jul 12 13:55 NW 17 16.09 Clear CLR 43 8     12%   41 1009.82        
Jul 12 13:35 NW 17 16.09 Clear   42 8     13%   40 1010.16        
Jul 12 13:15 NNW 19 16.09 Clear CLR 42 8     13%   40 1010.16        
Jul 12 12:55 NNW 19 16.09 Clear CLR 42 8     13%   40 1010.84        
Jul 12 12:35 NW 7 16.09 Clear   41 8     14%   39 1010.84        
Jul 12 12:15 NW 15 16.09 Clear CLR 41 10     16%   39 1011.51        
Jul 12 11:55   16.09 Clear   41 9     15%   39 1011.51        
Jul 12 11:35 WSW 9 16.09 Clear CLR 40 10     17%   38 1011.85        
Jul 12 11:15   16.09 Clear   39 10     18%   37 1011.85        
Jul 12 10:55 W 13 16.09 Clear   39 9     16%   37 1012.19        
Jul 12 10:35 W 11 16.09 Clear   39 9     16%   37 1012.19        
Jul 12 10:15 WSW 13 16.09 Clear CLR 39 10     18%   37 1012.53        
Jul 12 09:55 Calm 16.09 Clear   39 7     14%   37 1012.53        
Jul 12 09:35 Calm 16.09 Clear CLR 39 7     14%   37 1012.53        
Jul 12 09:15 ENE 9 16.09 Clear   38 7     15%   36 1012.53        
Jul 12 08:55 E 13 16.09 Clear CLR 36 8     18%   34 1012.53        
Jul 12 08:35 ENE 11 16.09 Clear   35 7     18%   33 1012.53        
Jul 12 08:15 NE 15 16.09 Clear   35 8     19%   33 1012.53        
Jul 12 07:55   16.09 Clear   33 8     21%   31 1012.87        
Jul 12 07:35 WNW 15 16.09 Clear   32 10     26%   30 1011.51        
Jul 12 07:15 W 9 16.09 Clear   32 9     24%   30 1012.53        
Jul 12 06:55 ESE 9 16.09 Clear   32 8     23%   30 1012.19        
Jul 12 06:35 E 13 16.09 Clear   31 9     26%   29 1011.85        
Jul 12 06:15 E 11 16.09 Clear   29 10     31%   28 1011.85        
Jul 12 05:55 Calm 16.09 Clear CLR 30 7     24%   28 1011.85        
Jul 12 05:35 SE 9 16.09 Clear   30 8     25%   28 1011.85        
Jul 12 05:15 SE 13 16.09 Clear   30 8     25%   28 1011.85        
Jul 12 04:55 SE 13 16.09 Clear   31 8     24%   29 1011.85        
Jul 12 04:35 SE 11 16.09 Clear   32 8     23%   30 1011.85        
Jul 12 04:15 ESE 15 16.09 Clear   31 8     24%   29 1011.85        
Jul 12 03:55 SE 6 16.09 Clear   30 9     27%   29 1011.85        
Jul 12 03:35 SSW 7 16.09 Clear   30 9     27%   29 1011.85        
Jul 12 03:15 Calm 16.09 Clear   30 8     25%   28 1011.51        
Jul 12 02:55 ESE 11 16.09 Clear   31 8     24%   29 1011.51        
Jul 12 02:35 ESE 11 16.09 Clear   32 8     23%   30 1011.51        
Jul 12 02:15 SE 11 16.09 Clear   32 8     23%   30 1011.51        
Jul 12 01:55 Calm 16.09 Clear   33 8     21%   31 1011.18        
Jul 12 01:35 SSE 11 16.09 Clear   34 8     20%   32 1011.51        
Jul 12 01:15 E 15 16.09 Clear   33 8     21%   31 1011.85        
Jul 12 00:55 E 7 16.09 Clear   34 8     20%   32 1011.51        
Jul 12 00:35 Calm 16.09 Clear   33 9     23%   31 1011.18        
Jul 12 00:15 WNW 13 16.09 Clear CLR 33 9     23%   31 1010.84        
Jul 11 23:55 WNW 6 16.09 Clear   33 10     24%   31 1011.18        
Jul 11 23:35 SW 7 16.09 Clear   33 10     24%   31 1011.51        
Jul 11 23:15 W 20 16.09 Clear CLR 35 9     20%   33 1011.18        
Jul 11 22:55 W 20 16.09 Clear CLR 34 9     22%   32 1011.51        
Jul 11 22:35 W 7 16.09 Clear   34 10     23%   32 1011.85        
Jul 11 22:15 SSW 11 16.09 Clear CLR 34 9     22%   32 1011.51        
Jul 11 21:55 WNW 19 16.09 Clear   35 9     20%   33 1011.18        
Jul 11 21:35 W 19 16.09 Clear   36 8     18%   34 1011.51        
Jul 11 21:15 WSW 13 16.09 Clear   35 9     20%   33 1011.18        
Jul 11 20:55 WNW 15 16.09 Clear   35 9     20%   33 1011.18        
Jul 11 20:35 W 17 16.09 Clear   35 9     20%   33 1011.18        
Jul 11 20:15 W 17 16.09 Clear   35 8     19%   33 1010.84        
Jul 11 19:55 W 19 16.09 Clear   36 8     18%   34 1011.18        
Jul 11 19:35 W 22 16.09 Clear   36 8     18%   34 1010.84        
Jul 11 19:15 W 26 16.09 Clear   36 8     18%   34 1010.5        
Jul 11 18:55 W 24 16.09 Clear CLR 37 9     18%   35 1010.5        
Jul 11 18:35 W 28 16.09 Clear CLR 38 8     16%   36 1010.5        
Jul 11 18:15 W 24 16.09 Clear   38 7     15%   36 1010.5        
Jul 11 17:55 W 28 16.09 Clear   39 6     13%   37 1010.5        
Jul 11 17:35 W 24 16.09 Clear   39 8     15%   37 1010.16        
Jul 11 17:15 W 31 16.09 Clear   41 7     13%   39 1010.5        
Jul 11 16:55 W 30 16.09 Clear   40 7     14%   38 1010.5        
Jul 11 16:35 W 35 16.09 Clear and Windy   41 7     13%   39 1010.5        
Jul 11 16:15 W 31 16.09 Clear   42 7     12%   40 1010.84        
Jul 11 15:55 W 35 16.09 Clear and Windy   42 7     12%   40 1010.84        
Jul 11 15:35 W 31 11.27 Clear   42 7     12%   40 1011.18        
Jul 11 15:15 W 37 16.09 Clear and Windy   42 7     12%   40 1011.51        
Notice The following observation data may not be complete
Jul 11 14:55   16.09 Clear            %              
Jul 11 14:35 W 31 16.09 Clear   42 7     12%   40 1011.85        
Jul 11 14:15 W 24 16.09 Clear   43 8     12%   41 1012.19        
Jul 11 13:55 W 24 16.09 Clear   42 6     11%   39 1012.53        
Jul 11 13:35 WNW 19 16.09 Clear   43 5     10%   40 1012.87        
Jul 11 13:15 W 20 16.09 Clear   41 7     13%   39 1013.21        
Jul 11 12:55 W 17 16.09 Clear   41 6     12%   38 1013.55        
Jul 11 12:35   16.09 Clear   41 7     13%   39 1013.55        
Jul 11 12:15 WSW 20 16.09 Clear   41        %     1013.88        
Notice The following observation data may not be complete
Jul 11 10:55   16.09 Clear            %              
Jul 11 10:35 N 11 16.09 Clear CLR 38 5     13%   35 1014.56        
Jul 11 09:35 Calm 16.09 Clear   35 7     18%   33 1015.24        
Jul 11 09:15 S 6 16.09 Clear   35 7     18%   33 1015.58        
Jul 11 08:55 SSW 15 8.05 Clear   35        %     1015.24        
Jul 11 08:35 SW 15 16.09 Clear   36 6     16%   34 1015.24        
Notice The following observation data may not be complete
Jul 11 07:55   16.09 Clear            %              
Jul 11 07:35 W 9 16.09 Clear CLR 33 7     20%   31 1014.9        
Jul 11 07:15 W 11 16.09 Clear   31 8     24%   29 1014.9        
Notice The following observation data may not be complete
Jul 11 06:55   16.09 Clear CLR          %              
Notice The following observation data may not be complete
Jul 11 05:55   16.09 Clear CLR          %              
Jul 11 05:35 E 13 16.09 Clear CLR 29 7     25%   28 1013.55        
Jul 11 05:15 W 6 16.09 Clear   29 7     25%   28 1013.21        
Notice The following observation data may not be complete
Jul 11 04:55   16.09 Clear CLR          %              
Jul 11 04:35 W 15 16.09 Clear   32 6     20%   30 1012.87        
Jul 11 04:15 WNW 15 16.09 Clear   31 5     19%   29 1012.87        
Jul 11 03:55   16.09 Clear   29 5     22%   28 1013.55        
Jul 11 03:35 S 7 16.09 Clear   29 5     22%   28 1013.55        
Jul 11 03:15 S 7 16.09 Clear   29 6     23%   28 1013.21        
Notice The following observation data may not be complete
Jul 11 02:55   16.09 Clear CLR          %              
Jul 11 02:35 W 7 16.09 Clear CLR 30 7     24%   28 1013.21        
Jul 11 02:15 WNW 6 16.09 Clear   29 7     25%   28 1013.21        
Notice The following observation data may not be complete
Jul 11 01:35 S 6 16.09 Clear CLR   6      %     1013.21        
Jul 11 01:15 SSW 7 16.09 Clear   30 7     24%   28 1013.21        
Jul 11 00:55 Calm 16.09 Clear   30 6     22%   28 1013.21        
Jul 11 00:35 SW 6 16.09 Clear   30 6     22%   28 1013.21        
Jul 11 00:15 Calm 16.09 Clear CLR 31 7     22%   29 1013.21        
Notice The following observation data may not be complete
Jul 10 23:55   16.09 Clear CLR          %              
Jul 10 23:35 NW 6 16.09 Clear   32 7     21%   30 1013.21        
Jul 10 23:15 NW 7 16.09 Clear CLR 32 7     21%   30 1013.21        
Jul 10 22:55 WNW 7 16.09 Clear   33 6     19%   31 1013.21        
Jul 10 22:35 W 7 16.09 Clear   33 6     19%   31 1013.21        
Jul 10 22:15 W 11 16.09 Clear   35 5     16%   33 1013.21        
Jul 10 21:55 WNW 9 16.09 Clear   34 5     16%   32 1012.87        
Jul 10 21:35 NNW 7 16.09 Clear   34 6     18%   32 1012.87        
Jul 10 21:15 NW 7 6.44 Clear   34 8     20%   32 1012.87        
Jul 10 20:55 NW 6 8.05 Clear   35 7     18%   33 1012.53        
Jul 10 20:35 W 11 8.05 Clear   35 8     19%   33 1012.53        
Jul 10 20:15 W 11 11.27 Clear   36 8     18%   34 1012.19        
Jul 10 19:55 WNW 11 16.09 Clear   36        %     1012.19        
Jul 10 19:35 WNW 13 16.09 Cloudy BKN100 OVC120 37 8     17%   35 1012.19        
Notice The following observation data may not be complete
Jul 10 18:55   16.09 Clear            %              
Jul 10 18:35 W 15 16.09 Clear   40        %     1011.85        
Jul 10 18:15 W 17 16.09 Clear   42 7     12%   40 1011.85        
Jul 10 17:55 W 19 16.09 Partly Cloudy SCT110 42 6     11%   39 1011.85        
Jul 10 17:35 W 20 16.09 Clear   42 7     12%   40 1012.19        
Jul 10 17:15 W 17 16.09 Clear   42 6     11%   39 1012.19        
Jul 10 16:55 W 19 16.09 Clear   41 7     13%   39 1012.53        
Jul 10 16:35 W 17 16.09 Clear   41 5     11%   38 1012.87        
Jul 10 16:15 W 19 16.09 Cloudy OVC110 42 5     11%   39 1012.87        
Notice The following observation data may not be complete
Jul 10 15:55   16.09 Clear            %              
Jul 10 15:35 W 19 16.09 Clear   42 4     10%   39 1013.55        
Jul 10 15:15 WSW 17 16.09 Clear   42 4     10%   39 1013.55        
Jul 10 14:35 W 15 16.09 Clear   41 4     10%   38 1014.22        
Notice The following observation data may not be complete
Jul 10 13:55   16.09 Clear            %              
Jul 10 13:35 W 11 16.09 Clear CLR 40 3     10%   37 1015.24        
Jul 10 13:15 W 15 16.09 Clear   40 2     10%   37 1015.58        
Jul 10 12:35 W 13 16.09 Clear   39 5     12%   36 1015.92        
Jul 10 12:15 W 15 16.09 Clear   39 6     13%   37 1016.26        
Jul 10 11:55 WSW 17 16.09 Clear CLR 38 6     14%   36 1016.59        
Jul 10 11:35 SW 15 16.09 Clear CLR 38 6     14%   36 1016.59        
Jul 10 11:15 SW 13 16.09 Clear   37 6     15%   35 1016.93        
Notice The following observation data may not be complete
Jul 10 10:55   16.09 Clear            %              
Jul 10 10:35 W 7 16.09 Clear   36 5     15%   34 1016.93        
Jul 10 09:35 WSW 11 16.09 Clear CLR 34 4     15%   32 1017.27        
Notice The following observation data may not be complete
Jul 10 08:55   16.09 Clear            %              
Jul 10 08:35 SSE 7 16.09 Clear CLR 32 5     18%   30 1017.27        
Jul 10 08:15 SSE 7 16.09 Clear   31 4     18%   29 1016.93        
Notice The following observation data may not be complete
Jul 10 07:55   16.09 Clear            %              
Jul 10 07:35 SE 9 16.09 Clear CLR 29 4     20%   27 1016.59        
Jul 10 07:15 SSE 13 16.09 Clear   28 4     22%   27 1016.59        
Jul 10 06:55 SE 17 16.09 Clear   27 3     21%   26 1016.59        
Jul 10 06:35 SE 15 16.09 Clear   26 2     21%   25 1016.26        
Jul 10 06:15 SE 15 16.09 Clear   25 2     22%   24 1016.26        
Notice The following observation data may not be complete
Jul 10 05:55   16.09 Clear CLR          %              
Jul 10 05:35 ESE 13 16.09 Clear   23 0     22%   22 1015.92        
Jul 10 05:15 ESE 15 16.09 Clear   23 0     22%   22 1015.58        
Jul 10 04:55 ESE 13 16.09 Clear CLR 22 0     23%   21 1015.24        
Jul 10 04:35 SSE 9 16.09 Clear   24 0     21%   23 1015.24        
Jul 10 04:15 S 9 16.09 Clear   24 0     21%   23 1014.9        
Jul 10 03:55 SE 9 16.09 Clear   23 0     22%   22 1014.9        
Jul 10 03:40 SE 13 16.09 Clear CLR 24 0     21%   23 1014.9        
Jul 10 03:15 SSE 11 16.09 Clear CLR 25 1     21%   24 1014.56        
Jul 10 02:55 SSW 7 16.09 Clear CLR 28 2     19%   27 1014.56        
Jul 10 02:35 SSW 6 16.09 Clear CLR 24 0     21%   23 1014.56        
Jul 10 02:15 Calm 16.09 Clear   25 1     21%   24 1014.22        
Notice The following observation data may not be complete
Jul 10 01:55   16.09 Clear CLR          %              
Jul 10 01:35 Calm 16.09 Clear   26 1     20%   25 1014.56        
Jul 10 01:15 Calm 16.09 Clear   26 2     21%   25 1014.56        
Jul 10 00:55 E 6 16.09 Clear CLR 25 2     22%   24 1014.56        
Jul 10 00:35 ESE 6 16.09 Clear   25 3     24%   24 1014.56        
Jul 10 00:15 Calm 16.09 Clear CLR 25 2     22%   24 1014.56        
Notice The following observation data may not be complete
Jul 09 23:55 S 6 16.09 Clear     2      %     1014.56        
Jul 09 23:35 Calm 16.09 Clear CLR 25 2     22%   24 1014.56        
Jul 09 23:15 Calm 16.09 Clear   27        %     1014.56        
Notice The following observation data may not be complete
Jul 09 22:55 Calm 16.09 Clear            %     1014.56        
Jul 09 22:35 Calm 16.09 Clear   29 -1     14%   27 1014.22        
Jul 09 22:15 Calm 16.09 Clear   30 -1     13%   28 1014.22        
Jul 09 21:55 N 6 16.09 Clear   31 -1     13%   29 1014.22        
Jul 09 21:35 NNE 9 16.09 Clear   32 -1     12%   30 1014.22        
Notice The following observation data may not be complete
Jul 09 20:55   16.09 Clear            %              
Jul 09 20:35 N 11 16.09 Partly Cloudy SCT110 33 -1     11%   30 1013.55        
Jul 09 20:15 N 11 16.09 Clear   33 0     12%   31 1013.21        
Notice The following observation data may not be complete
Jul 09 19:55   16.09 Clear            %              
Jul 09 19:35 NNW 13 16.09 Clear   36 0     10%   33 1012.87        
Jul 09 19:15 NNW 13 16.09 Clear   38 -2     8%   34 1012.87        
Jul 09 18:55 N 19 16.09 Cloudy SCT075 BKN090 OVC110 38 -2     8%   34 1012.87        
Jul 09 18:35 NNW 15 16.09 Clear   39 -1     8%   35 1012.87        
Jul 09 18:15 NNW 15 16.09 Clear   39 -2     8%   35 1012.53        
Jul 09 17:55 NNW 15 16.09 Mostly Cloudy BKN110 39 -2     8%   35 1012.87        
Jul 09 17:35 NNW 15 16.09 Clear   39 -2     8%   35 1012.87        
Jul 09 17:15 NNW 11 16.09 Clear   39 -2     8%   35 1012.87        
Jul 09 16:55 NW 11 16.09 Clear   39 -2     8%   35 1013.21        
Jul 09 16:35 NNW 11 16.09 Clear   39 -3     7%   35 1013.21        
Jul 09 16:15 NW 9 16.09 Clear   39 -2     8%   35 1013.55        
Jul 09 15:55 NNW 11 16.09 Clear   39 -3     7%   35 1013.88        
Jul 09 15:35 NNW 17 16.09 Clear   39 -2     8%   35 1013.88        
Jul 09 15:15 WNW 13 16.09 Clear   38 -2     8%   34 1014.22        
Jul 09 14:55 W 6 16.09 Clear CLR 37 -3     8%   33 1014.56        
Jul 09 14:35 WSW 7 16.09 Clear   37 -4     7%   33 1014.9        
Jul 09 14:15 SW 7 16.09 Clear   37 -4     7%   33 1015.24        
Jul 09 13:55 W 6 16.09 Clear CLR 36 -4     8%   32 1015.58        
Jul 09 13:35 W 13 16.09 Clear CLR 36 -4     8%   32 1015.58        
Jul 09 13:15 W 11 16.09 Clear   36 -4     8%   32 1015.92        
Notice The following observation data may not be complete
Jul 09 12:55   16.09 Clear CLR          %              
Jul 09 12:35 WSW 6 16.09 Clear CLR 35 -4     8%   32 1016.26        
Jul 09 12:15 WSW 13 16.09 Clear CLR 35 -4     8%   32 1016.59        
Jul 09 11:55 W 7 16.09 Clear CLR 34 -6     7%   31 1016.59        
Jul 09 11:35 W 13 16.09 Clear   34 -6     7%   31 1016.93        
Jul 09 11:15 N 11 16.09 Clear CLR 33 -7     7%   30 1016.93        
Jul 09 10:55 N 11 16.09 Clear   33 -5     8%   30 1016.93        
Jul 09 10:35 W 7 16.09 Clear   32 -3     10%   29 1016.93        
Jul 09 10:15 W 7 16.09 Clear   31 -2     12%   29 1017.27        
Jul 09 09:55 W 9 16.09 Clear   31 -4     10%   29 1016.93        
Jul 09 09:35 W 11 16.09 Clear   30 -4     11%   28 1017.27        
Jul 09 08:35 SSW 7 16.09 Clear CLR 29 -7     9%   27 1017.27        
Jul 09 08:15 S 7 16.09 Clear   28 -8     9%   26 1017.27        
Jul 09 07:55 Calm 16.09 Clear CLR 28 -8     9%   26 1016.93        
Jul 09 07:35 Calm 16.09 Clear   26 -7     11%   25 1016.93        
Notice The following observation data may not be complete
Jul 09 06:55   16.09 Clear            %              
Jul 09 06:35 SE 6 16.09 Clear CLR 23 -8     12%   22 1016.26        
Jul 09 06:15 SE 13 16.09 Clear   22 -9     12%   21 1016.26        
Jul 09 05:55 SE 11 16.09 Clear CLR 21 -9     12%     1015.92        
Jul 09 05:35 SE 15 16.09 Clear   20 -9     13%     1015.92        
Jul 09 05:15 ESE 15 16.09 Clear   21 -9     12%     1015.58        
Jul 09 04:55 ESE 15 16.09 Clear CLR 20 -9     13%     1015.24        
Jul 09 04:35 SE 13 16.09 Clear   22 -9     12%   21 1015.24        
Jul 09 04:15 SE 13 16.09 Clear CLR 22 -9     12%   21 1014.9        
Jul 09 03:55 SE 13 16.09 Clear CLR 22 -10     11%   21 1014.9        
Jul 09 03:35 ESE 15 16.09 Clear   22 -10     11%   21 1014.56        
Jul 09 03:15 E 15 16.09 Clear   21 -11     11%     1014.56        
Jul 09 02:55 ESE 13 16.09 Clear CLR 23 -11     9%   22 1014.56        
Jul 09 02:35 ESE 15 16.09 Clear   23 -11     9%   22 1014.56        
Jul 09 02:15 ESE 15 16.09 Clear CLR 23 -11     9%   22 1014.56        
Jul 09 01:55 ESE 13 16.09 Clear   23        %     1014.56        
Jul 09 01:35 SE 13 16.09 Clear   24 -10     10%   23 1014.22        
Jul 09 01:15 ESE 15 16.09 Clear   23 -10     10%   22 1014.22        
Notice The following observation data may not be complete
Jul 09 00:55   16.09 Clear            %              
Jul 09 00:35 SSE 9 16.09 Clear   26 -9     9%   25 1014.22        
Jul 09 00:15 ESE 13 16.09 Clear   25 -9     10%   24 1014.22        
Jul 08 23:55 SE 13 16.09 Clear CLR 27 -7     10%   26 1014.22        
Jul 08 23:35 SSE 15 16.09 Clear   27 -6     11%   26 1013.88        
Jul 08 23:15 SSE 13 16.09 Clear   26 -5     13%   25 1013.88        
Jul 08 22:55 SSE 13 16.09 Clear   27 -5     12%   26 1013.55        
Jul 08 22:35 SSE 11 16.09 Clear CLR 26 -5     13%   25 1013.55        
Jul 08 22:15 ESE 9 16.09 Clear CLR 27 -5     12%   26 1013.55        
Jul 08 21:55 SSE 9 16.09 Clear   27 -4     13%   26 1013.55        
Jul 08 21:35 Calm 16.09 Clear   29 -4     11%   27 1013.55        
Jul 08 21:15 Calm 16.09 Clear CLR 32 -4     10%   29 1013.21        
Jul 08 20:55 Calm 16.09 Clear CLR 32 -3     10%   29 1012.87        
Jul 08 20:35 Calm 16.09 Clear   32 -1     12%   30 1012.87        
Jul 08 20:15 SSW 9 16.09 Clear   31        %     1012.53        
Notice The following observation data may not be complete
Jul 08 19:55 Calm 16.09 Clear            %     1012.19        
Notice The following observation data may not be complete
Jul 08 19:35 SSW 7 16.09 Clear            %     1011.85        
Jul 08 19:15 WSW 7 16.09 Clear   35        %     1011.85        
Jul 08 18:55 W 13 16.09 Partly Cloudy SCT120 36        %     1011.51        
Jul 08 18:35 WSW 15 16.09 Clear   37        %     1011.51        
Jul 08 18:15 W 13 16.09 Clear   38        %     1011.18        
Jul 08 17:55 W 13 16.09 Clear   38 -2     8%   34 1011.18        
Jul 08 17:35 SW 15 16.09 Clear   39 -2     8%   35 1010.84        
Jul 08 17:15 SSW 22 16.09 Clear CLR 39 -2     8%   35 1011.18        
Notice The following observation data may not be complete
Jul 08 16:55   16.09 Clear            %              
Jul 08 16:35 SW 24 16.09 Clear CLR 40 -5     6%   36 1011.51        
Jul 08 16:15 W 13 16.09 Clear   39 -4     7%   35 1011.85        
Jul 08 15:55 SSW 6 16.09 Clear   38 -6     6%   34 1011.85        
Jul 08 15:35 SW 7 16.09 Clear CLR 38 -7     5%   34 1012.19        
Jul 08 15:15 W 20 16.09 Clear   38 -7     5%   34 1012.53        
Jul 08 14:55 SSW 11 16.09 Clear CLR 38 -7     5%   34 1012.87        
Jul 08 14:35 SW 17 16.09 Clear CLR 38 -8     5%   34 1013.21        
Jul 08 14:15 SSW 19 16.09 Clear   38 -8     5%   34 1013.55        
Notice The following observation data may not be complete
Jul 08 13:55   16.09 Clear            %              
Jul 08 13:35 SSW 22 16.09 Clear CLR 38 -8     5%   34 1013.55        
Notice The following observation data may not be complete
Jul 08 12:55   16.09 Clear CLR          %              
Jul 08 12:35 S 19 16.09 Clear CLR 37 -5     7%   33 1014.22        
Jul 08 12:15 SSE 17 16.09 Clear   37 -6     6%   33 1014.22        
Jul 08 11:55 S 15 16.09 Clear CLR 37 -6     6%   33 1014.56        
Jul 08 11:35 S 24 16.09 Clear   37 -5     7%   33 1014.56        
Jul 08 11:15 S 15 16.09 Clear   35 -5     8%   32 1014.9        
Jul 08 10:55 S 19 16.09 Clear CLR 35 -3     9%   32 1014.9        
Jul 08 10:35 SSE 15 16.09 Clear CLR 35 -4     8%   32 1014.9        
Jul 08 10:15 SSE 19 16.09 Clear CLR 34 -5     8%   31 1014.9        
Notice The following observation data may not be complete
Jul 08 09:55   16.09 Clear            %              
Jul 08 09:35 SSE 11 16.09 Clear   32 -3     10%   29 1015.58        
Jul 08 09:15 SSE 15 16.09 Clear   31 -4     10%   29 1015.58        
Jul 08 08:55 SE 19 16.09 Clear   31 -4     10%   29 1015.58        
Jul 08 08:35 SE 17 16.09 Cloudy BKN100 OVC120 30 -5     10%   28 1015.58        
Jul 08 08:15 SE 17 16.09 Mostly Cloudy BKN100 BKN120 28 -5     11%   26 1015.24        
Jul 08 07:55 SE 20 16.09 Clear   27 -5     12%   26 1015.24        
Jul 08 07:35 SE 17 16.09 Cloudy OVC110 27 -5     12%   26 1015.24        
Jul 08 07:15 SE 19 16.09 Clear   26 -5     13%   25 1014.9        
Jul 08 06:55 SE 17 16.09 Cloudy BKN100 OVC120 24 -5     14%   23 1014.9        
Jul 08 06:35 ESE 15 16.09 Clear   24 -5     14%   23 1014.9        
Jul 08 06:15 SE 19 16.09 Clear   24 -5     14%   23 1014.56        
Jul 08 05:55 SE 17 16.09 Cloudy OVC110 24 -5     14%   23 1014.22        
Jul 08 05:35 SE 17 16.09 Clear   23 -6     14%   22 1014.22        
Jul 08 05:15 SE 20 16.09 Clear   24 -6     13%   23 1013.88        
Jul 08 04:55 SE 19 16.09 Cloudy BKN100 OVC120 24 -5     14%   23 1013.55        
Jul 08 04:35 SE 19 16.09 Clear   24 -6     13%   23 1013.21        
Jul 08 04:15 SE 20 16.09 Clear   24 -6     13%   23 1013.21        
Jul 08 03:50 SE 19 16.09 Clear   24 -6     13%   23 1013.21        
Jul 08 03:35 SE 19 16.09 Clear   24 -7     12%   23 1013.21        
Jul 08 03:15 SE 19 16.09 Clear   24 -7     12%   23 1013.21        
Jul 08 02:55 SSE 19 16.09 Clear   25 -7     11%   24 1013.21        
Jul 08 02:35 SSE 17 16.09 Clear   24 -7     12%   23 1013.55        
Jul 08 02:15 SE 17 16.09 Partly Cloudy SCT100 SCT120 25 -7     11%   24 1013.55        
Jul 08 01:55 SE 15 16.09 Clear   24 -7     12%   23 1013.55        
Jul 08 01:35 SSE 15 16.09 Clear CLR 24 -7     12%   23 1013.55        
Jul 08 01:15 SSE 17 16.09 Clear   25 -7     11%   24 1013.55        
Jul 08 00:55 SE 15 16.09 Clear   26 -7     11%   25 1013.55        
Jul 08 00:35 SE 19 16.09 Clear   26 -7     11%   25 1013.55        
Jul 08 00:15 SSE 13 16.09 Clear CLR 26 -6     12%   25 1013.88        
Jul 07 23:55 SE 13 16.09 Clear CLR 25 -6     12%   24 1013.55        
Jul 07 23:35 SSE 15 16.09 Clear   25 -5     13%   24 1013.55        
Jul 07 23:15 SE 13 16.09 Clear   25 -5     13%   24 1013.55        
Notice The following observation data may not be complete
Jul 07 22:55 SE 9 16.09 Clear CLR   -5      %     1013.21        
Jul 07 22:35 SE 7 16.09 Clear   27 -4     13%   26 1013.21        
Jul 07 22:15 SW 9 16.09 Clear   28 -3     13%   27 1013.21        
Jul 07 21:55 WSW 7 16.09 Clear   29        %     1012.87        
Jul 07 21:35 WSW 7 16.09 Clear   31 -3     11%   29 1012.87        
Jul 07 21:15 SSW 6 16.09 Clear   30        %     1012.53        
Jul 07 20:55 WSW 7 16.09 Clear   30        %     1012.19        
Jul 07 20:35 W 15 16.09 Clear   32 -4     10%   29 1011.85        
Jul 07 20:15 W 13 16.09 Clear   33 -4     9%   30 1011.85        
Jul 07 19:55 W 15 16.09 Clear CLR 33 -3     10%   30 1011.51        
Jul 07 19:35 W 19 16.09 Clear   34 -3     9%   31 1011.51        
Jul 07 19:15 W 19 16.09 Clear   34 -1     11%   31 1011.18        
Jul 07 18:55 W 17 16.09 Clear   35        %     1010.84        
Jul 07 18:35 W 13 16.09 Clear   36 0     10%   33 1010.5        
Jul 07 18:15 W 17 16.09 Clear CLR 36 0     10%   33 1010.16        
Jul 07 17:55 W 24 16.09 Clear   37 1     10%   34 1009.82        
Jul 07 17:35 WNW 24 16.09 Clear   39 2     10%   36 1009.82        
Jul 07 17:15 WSW 22 16.09 Clear CLR 40 2     10%   37 1009.82        
Jul 07 16:55 WSW 24 16.09 Clear   40 3     10%   37 1009.82        
Jul 07 16:35 SW 17 16.09 Clear   41 2     9%   37 1009.82        
Jul 07 16:15 SW 19 16.09 Clear   41 3     10%   38 1009.82        
Jul 07 15:55 SW 20 16.09 Clear   40 4     11%   37 1009.82        
Jul 07 15:35 WSW 11 16.09 Clear   40 2     10%   37 1010.16        
Jul 07 15:15 S 19 16.09 Clear   41 3     10%   38 1010.5        
Jul 07 14:55 SW 22 16.09 Clear   41 4     10%   38 1010.84        
Jul 07 14:35 S 11 16.09 Clear   40 5     12%   37 1011.18        
Jul 07 14:15 S 15 16.09 Clear   40 4     11%   37 1011.51        
Jul 07 13:55 S 19 16.09 Clear CLR 40 4     11%   37 1011.85        
Jul 07 13:35 SSE 13 16.09 Clear   39 4     12%   36 1012.19        
Jul 07 13:15 SSW 11 16.09 Clear   39 3     11%   36 1012.53        
Notice The following observation data may not be complete
Jul 07 12:55   16.09 Clear            %              
Jul 07 12:35 SSE 17 16.09 Clear   38 4     12%   35 1013.21        
Jul 07 12:15 SE 11 16.09 Clear   38 6     14%   36 1013.21        
Jul 07 11:55 S 13 16.09 Clear CLR 37 7     16%   35 1013.55        
Jul 07 11:35 S 17 16.09 Clear   37 9     18%   35 1013.88        
Jul 07 11:15 S 15 16.09 Clear   36 9     19%   34 1014.22        
Jul 07 10:55 S 11 16.09 Clear   36 8     18%   34 1014.22        
Jul 07 10:35 S 11 16.09 Clear   36 6     16%   34 1014.56        
Jul 07 10:15 SSW 15 16.09 Clear   35 5     16%   33 1014.56        
Jul 07 09:55 S 17 16.09 Clear   36 6     16%   34 1014.56        
Jul 07 09:35 S 17 16.09 Clear   35 7     18%   33 1014.56        
Jul 07 09:15 SE 11 16.09 Clear   35 5     16%   33 1014.9        
Jul 07 08:55 SE 17 16.09 Clear   35        %     1015.24        
Jul 07 08:35 SSE 17 16.09 Clear   34 4     15%   32 1015.58        
Jul 07 08:15 SE 19 16.09 Clear CLR 32 6     20%   30 1015.58        
Jul 07 07:55 ESE 15 16.09 Clear   30 9     27%   29 1015.24        
Jul 07 07:35 ESE 17 16.09 Clear   30 5     21%   28 1015.24        
Jul 07 07:15 ESE 19 16.09 Clear   29 6     23%   28 1015.24        
Notice The following observation data may not be complete
Jul 07 06:55   16.09 Clear            %              
Jul 07 06:35 ESE 11 16.09 Clear   27 6     26%   26 1014.9        
Jul 07 06:15 ESE 9 16.09 Mostly Cloudy BKN120 25 7     32%   24 1014.56        
Jul 07 05:55 E 9 16.09 Partly Cloudy SCT120 26 7     30%   25 1014.22        
Jul 07 05:35 Calm 16.09 Partly Cloudy SCT110 27 8     30%   27 1014.22        
Jul 07 05:15 ESE 6 16.09 Clear   26 9     34%   26 1013.88        
Jul 07 04:55 Calm 16.09 Clear   26 10     37%   26 1013.88        
Jul 07 04:35 Calm 16.09 Clear   27 9     32%   27 1013.88        
Jul 07 04:15 Calm 16.09 Clear   27 9     32%   27 1013.55        
Jul 07 03:55 SE 9 16.09 Clear   27 9     32%   27 1013.55        
Jul 07 03:35 SE 13 16.09 Clear   28 9     30%   27 1013.21        
Jul 07 03:15 SE 17 16.09 Clear CLR 29 9     29%   28 1013.55        
Jul 07 02:55 SE 15 16.09 Clear   30 8     25%   28 1013.55        
Jul 07 02:35 SE 11 16.09 Clear CLR 30 7     24%   28 1013.55        
Jul 07 02:15 S 6 16.09 Clear   30 7     24%   28 1013.55        
Jul 07 01:55 S 7 16.09 Clear   31 8     24%   29 1013.55        
Jul 07 01:35 S 6 16.09 Clear CLR 30 8     25%   28 1013.21        
Jul 07 01:20 S 9 16.09 Clear   31 8     24%   29 1013.21        
Jul 07 00:55 SSE 9 16.09 Clear   31 9     26%   29 1013.21        
Jul 07 00:35 SSE 11 16.09 Clear   29 10     31%   28 1013.21        
Jul 07 00:15 Calm 16.09 Clear   30 11     31%   29 1013.21        
Jul 06 23:55 SW 6 16.09 Clear CLR 31 11     29%   30 1013.21        
Jul 06 23:35 SSW 13 16.09 Clear   31 10     27%   30 1013.21        
Jul 06 23:15 SSE 11 16.09 Clear   32 12     29%   31 1012.87        
Jul 06 22:55 S 11 16.09 Clear   32 13     31%   31 1012.87        
Jul 06 22:35 SSE 13 16.09 Clear   32 13     31%   31 1012.87        
Jul 06 22:15 SE 11 16.09 Clear   32 13     31%   31 1012.87        
Jul 06 21:55 SSE 11 16.09 Clear   33 13     30%   32 1012.87        
Jul 06 21:35 SSE 11 16.09 Clear   34 13     28%   33 1012.87        
Jul 06 21:15 ESE 11 16.09 Clear   33 13     30%   32 1012.87        
Jul 06 20:55 ESE 13 16.09 Clear   34 13     28%   33 1012.53        
Jul 06 20:35 SE 13 16.09 Clear   35 12     25%   34 1012.19        
Jul 06 20:15 SE 15 16.09 Clear   35 12     25%   34 1012.19        
Jul 06 19:55 SSE 9 16.09 Clear CLR 35 13     27%   34 1012.19        
Jul 06 19:35 S 7 16.09 Clear   35        %     1011.85        
Jul 06 19:15 S 13 16.09 Clear CLR 37 12     22%   36 1011.85        
Jul 06 18:55 WSW 9 16.09 Clear CLR 38 9     17%   36 1011.85        
Jul 06 18:35 WNW 9 16.09 Clear CLR 39 8     15%   37 1011.85        
Jul 06 18:15 WNW 9 16.09 Clear CLR 39 9     16%   37 1011.51        
Jul 06 17:55 WSW 7 16.09 Clear CLR 39 9     16%   37 1011.85        
Jul 06 17:35 W 11 16.09 Clear   39 9     16%   37 1011.85        
Jul 06 17:15 W 11 16.09 Clear   39 9     16%   37 1012.19        
Jul 06 16:55 WNW 11 16.09 Clear   39 9     16%   37 1012.53        
Jul 06 16:35 W 7 16.09 Clear   39 9     16%   37 1012.87        
Jul 06 16:15 NW 15 16.09 Clear CLR 39 10     18%   37 1012.87        
Jul 06 15:55 SW 6 16.09 Clear CLR 39 9     16%   37 1013.21        
Jul 06 15:35 WNW 11 16.09 Clear   38 9     17%   36 1013.21        
Jul 06 15:15 WSW 6 16.09 Clear   38 9     17%   36 1013.55        
Jul 06 14:55 SW 9 16.09 Clear   38 9     17%   36 1014.22        
Jul 06 14:35 SW 9 16.09 Clear   38 8     16%   36 1014.56        
Jul 06 14:15 W 11 16.09 Clear   38 10     19%   36 1014.9        
Jul 06 13:55 W 11 16.09 Clear   38 8     16%   36 1015.24        
Jul 06 13:35 S 15 16.09 Clear   38 8     16%   36 1015.24        
Jul 06 13:15 WNW 7 16.09 Clear CLR 37 9     18%   35 1015.92        
Notice The following observation data may not be complete
Jul 06 12:55   16.09 Clear            %              
Jul 06 12:35 WNW 9 16.09 Clear CLR 37 7     16%   35 1016.59        
Jul 06 12:15 WSW 13 16.09 Clear CLR 36 7     17%   34 1016.59        
Jul 06 11:55 WNW 9 16.09 Clear   36 8     18%   34 1016.93        
Jul 06 11:35 SSW 7 16.09 Clear   35 8     19%   33 1017.27        
Jul 06 11:15 W 13 16.09 Clear   35 9     20%   33 1017.27        
Jul 06 10:55 WNW 13 16.09 Clear   35 11     23%   33 1017.27        
Jul 06 10:35 SSW 11 16.09 Clear   35 9     20%   33 1017.61        
Jul 06 10:15 Calm 16.09 Clear   34 9     22%   32 1017.61        
Jul 06 09:55 S 7 16.09 Clear   34 11     25%   32 1017.61        
Jul 06 09:35 S 9 16.09 Clear CLR 33 13     30%   32 1017.61        
Jul 06 09:15 S 7 16.09 Clear   33 14     32%   32 1017.61        
Jul 06 08:55 SSW 7 16.09 Clear   32 13     31%   31 1017.61        
Jul 06 08:35 SSW 9 16.09 Clear   32 14     34%   31 1017.95        
Jul 06 08:15 SSE 9 16.09 Clear   31 13     33%   30 1017.95        
Jul 06 07:55 S 9 16.09 Clear   31 13     33%   30 1017.95        
Jul 06 07:35 Calm 16.09 Clear CLR 29 13     37%   28 1017.95        
Jul 06 07:15 Calm 16.09 Clear   28 12     37%   27 1017.61        
Notice The following observation data may not be complete
Jul 06 06:55 NNW 6 16.09 Clear     13      %     1017.61        
Notice The following observation data may not be complete
Jul 06 06:35 SE 9 16.09 Clear     14      %     1017.27        
Jul 06 06:15 ESE 11 16.09 Clear   26 14     48%   26 1017.27        
Jul 06 05:55 ESE 13 16.09 Clear CLR 25 14     50%   25 1017.27        
Jul 06 05:35 ESE 13 16.09 Clear   25 14     50%   25 1016.93        
Jul 06 05:15 SE 9 16.09 Clear   25 13     47%   25 1016.93        
Jul 06 04:55 ESE 11 16.09 Clear CLR 25 14     50%   25 1016.93        
Jul 06 04:35 ESE 11 16.09 Clear CLR 26 14     48%   26 1016.59        
Jul 06 04:15 ESE 17 16.09 Clear   26 14     48%   26 1016.59        
Jul 06 03:55 ESE 17 16.09 Clear   26 12     42%   26 1016.26        
Jul 06 03:35 ESE 17 16.09 Clear CLR 26 9     34%   26 1016.26        
Jul 06 03:15 ESE 15 16.09 Clear CLR 25 5     28%   24 1016.26        
Jul 06 02:55 SE 13 16.09 Clear CLR 26 2     21%   25 1016.26        
Jul 06 02:35 E 17 16.09 Clear CLR 27 1     18%   26 1015.92        
Jul 06 02:15 ESE 15 16.09 Clear CLR 28 1     17%   27 1015.92        
Jul 06 01:55 SE 15 16.09 Clear   28 0     16%   27 1015.92        
Jul 06 01:35 SSE 7 16.09 Clear   28 1     17%   27 1015.58        
Jul 06 01:15 SSE 7 16.09 Clear   29 2     18%   27 1015.58        
Jul 06 00:55 SSE 7 16.09 Clear   28 2     19%   27 1015.58        
Jul 06 00:35 SE 9 16.09 Clear   29 3     19%   27 1015.92        
Jul 06 00:15 SSE 11 16.09 Clear   28 3     20%   27 1015.58        
Jul 05 23:55 SSE 13 16.09 Clear CLR 29 4     20%   27 1015.58        
Jul 05 23:35 S 11 16.09 Clear   28 6     25%   27 1015.24        
Jul 05 23:15 SSW 7 16.09 Clear CLR 27        %     1015.24        
Jul 05 22:55 WNW 6 16.09 Clear   31 1     15%   29 1014.9        
Jul 05 22:35 WNW 9 16.09 Clear CLR 31 1     15%   29 1014.56        
Jul 05 22:15 WNW 9 16.09 Clear   31 1     15%   29 1014.56        
Jul 05 21:55 WNW 15 16.09 Clear   33 1     13%   31 1014.22        
Jul 05 21:35 WNW 20 16.09 Clear   32 4     17%   30 1013.88        
Jul 05 21:15 N 15 16.09 Clear   33 2     14%   31 1013.55        
Jul 05 20:55 N 13 16.09 Clear   33 2     14%   31 1013.55        
Jul 05 20:35 NNW 11 16.09 Partly Cloudy SCT100 SCT120 33 2     14%   31 1013.21        
Jul 05 20:15 NNW 9 16.09 Mostly Cloudy BKN100 BKN120 34 2     13%   32 1013.21        
Jul 05 19:55 N 13 16.09 Clear   36 2     12%   33 1012.87        
Jul 05 19:35 N 19 16.09 Clear   37 3     12%   34 1012.53        
Jul 05 19:15 NNW 15 16.09 Cloudy BKN100 OVC120 37 4     13%   34 1012.53        
Jul 05 18:55 NNW 17 16.09 Clear   39 3     11%   36 1012.53        
Jul 05 18:35 NNW 15 16.09 Cloudy BKN100 OVC120 39 2     10%   36 1012.19        
Jul 05 18:15 WNW 9 16.09 Clear   40 2     10%   37 1012.19        
Jul 05 17:55 WNW 6 16.09 Clear   40 2     10%   37 1011.85        
Jul 05 17:35 W 9 16.09 Clear   40 2     10%   37 1011.85        
Jul 05 17:15 WNW 6 16.09 Clear   40 2     10%   37 1011.85        
Jul 05 16:55 W 11 16.09 Clear   40 2     10%   37 1011.85        
Jul 05 16:35 NW 6 16.09 Clear   40 2     10%   37 1012.19        
Jul 05 16:15 NW 7 16.09 Cloudy OVC110 40 3     10%   37 1012.19        
Notice The following observation data may not be complete
Jul 05 15:55   16.09 Clear            %              
Jul 05 15:35 W 13 16.09 Clear   40 3     10%   37 1012.53        
Jul 05 15:15 ESE 11 16.09 Clear   40 2     10%   37 1012.87        
Jul 05 14:55 SE 11 16.09 Clear   40 2     10%   37 1013.21        
Jul 05 14:35 WSW 11 16.09 Clear   39 3     11%   36 1013.55        
Jul 05 14:15 SSW 11 16.09 Clear   39 2     10%   36 1013.88        
Jul 05 13:55 SSW 11 16.09 Clear   39 2     10%   36 1014.22        
Jul 05 13:35 WSW 6 16.09 Clear   39 2     10%   36 1014.56        
Jul 05 13:15 WNW 13 16.09 Clear   38 2     11%   35 1014.9        
Jul 05 12:55 E 11 16.09 Clear CLR 38 1     10%   35 1015.24        
Jul 05 12:35 Calm 16.09 Clear   38 1     10%   35 1015.58        
Jul 05 12:15 NNE 7 16.09 Clear   37 2     11%   34 1015.92        
Jul 05 11:55 SSE 15 16.09 Clear   37 1     10%   34 1016.26        
Jul 05 11:35 SE 9 16.09 Clear   36 1     11%   33 1016.59        
Jul 05 11:15 SSE 13 16.09 Clear   36 2     12%   33 1016.59        
Jul 05 10:55 SE 9 16.09 Clear   36 2     12%   33 1016.93        
Jul 05 10:35 S 11 16.09 Clear   35 2     13%   32 1016.93        
Jul 05 10:15 SE 13 16.09 Clear   34 2     13%   32 1016.93        
Jul 05 09:55 SSE 11 16.09 Clear   34 1     12%   31 1016.93        
Jul 05 09:35 S 15 16.09 Clear   34 1     12%   31 1016.93        
Jul 05 09:15 SSE 15 16.09 Clear   33 2     14%   31 1016.93        
Jul 05 08:55 SSE 15 16.09 Clear   32 3     16%   30 1016.93        
Jul 05 08:35 S 15 16.09 Clear   32 5     18%   30 1016.93        
Jul 05 08:15 S 9 16.09 Clear CLR 30 5     21%   28 1016.93        
Jul 05 07:55 S 7 16.09 Clear   29 5     22%   28 1016.59        
Jul 05 07:35 SSE 11 16.09 Partly Cloudy SCT120 29 3     19%   27 1016.59        
Jul 05 07:15 SE 11 16.09 Partly Cloudy SCT100 SCT120 28 4     22%   27 1016.59        
Jul 05 06:55 SE 9 16.09 Clear CLR 26 4     24%   25 1016.26        
Jul 05 06:35 SE 11 16.09 Clear   25 4     26%   24 1016.26        
Jul 05 06:15 ESE 13 16.09 Partly Cloudy SCT110 22 4     31%   21 1016.26        
Jul 05 05:55 SE 13 16.09 Clear CLR 21 4     33%     1015.92        
Jul 05 05:35 SSE 9 16.09 Clear   21 3     31%     1015.58        
Jul 05 05:15 ESE 9 16.09 Clear CLR 20 3     32%     1015.24        
Jul 05 04:55 ESE 11 16.09 Clear CLR 21 3     31%     1014.9        
Jul 05 04:35 ESE 17 16.09 Clear   24 4     27%   23 1014.56        
May 15 07:35 SE 9 16.09 Clear   23 -4     16%   22 1015.24        
Notice The following observation data may not be complete
May 14 23:55   16.09 Clear            %              
May 14 18:55 NW 9 16.09 Clear   32 1     14%   30 1009.82        
May 14 16:55 WNW 13 16.09 Clear   34 0     11%   31 1009.82        
May 14 16:35 WNW 17 16.09 Clear   34 0     11%   31 1009.82        
May 14 11:35 S 13 16.09 Clear   29 -2     13%   27 1014.22        
May 14 09:35 S 7 16.09 Clear   26 -6     12%   25 1014.56        
May 14 05:55 ESE 17 16.09 Clear   17 -10     15%     1013.88        
May 14 03:55 ESE 11 16.09 Clear   16 -9     17%     1013.21        
May 13 19:35 WNW 15 16.09 Clear   28 2     19%   27 1011.51        
Notice The following observation data may not be complete
May 13 06:55   16.09 Clear            %              
May 13 03:35 SSE 13 16.09 Clear   17 4     42%     1013.55        
May 12 22:35 S 17 16.09 Clear   22 0     23%   21          
May 12 00:35   16.09 Clear   24 4     27%   23 1008.47        
May 12 00:15 SW 22 16.09 Clear   24 4     27%   23          
May 11 17:15   4.83 Clear   35 2     13%   32 1004.74        
May 11 10:15   16.09 Clear   33 3     15%   31 1008.81